WMT75WB EHEH-LRIA
Flight info
| Callsign | WMT75WB |
|---|---|
| Flight time | 2h 17m |
| Altitude | 37000 |
| Route | VELNI Y869 SUMOP L179 MEVEL Z44 HMM DCT OMELO DCT BILNA DCT ABULI DCT KARIL DCT HUMOR DCT TOMUC P133 ARPIG |
| Aircraft | A320/M-SDE3FGHIRWY/LB1 |
Departure
| Time | 2026-04-24 08:50 |
|---|---|
| Airport | Eindhoven Airport (EHEH) |
Arrival
| Time | 2026-04-24 11:07 |
|---|---|
| Airport | Iaşi International Airport (LRIA) |
| Time | Latitude | Longitude | Altitude | Speed | Heading |
|---|---|---|---|---|---|
| 2026-04-24 08:19 | 51.45719 | 5.38897 | 71 ft | 0 kts | 127° |
| 2026-04-24 08:40 | 51.45732 | 5.38869 | 69 ft | 4 kts | 122° |
| 2026-04-24 08:41 | 51.45744 | 5.38831 | 64 ft | 4 kts | 108° |
| 2026-04-24 08:41 | 51.45748 | 5.38792 | 69 ft | 4 kts | 65° |
| 2026-04-24 08:41 | 51.45742 | 5.38777 | 64 ft | 0 kts | 35° |
| 2026-04-24 08:44 | 51.45744 | 5.38779 | 64 ft | 1 kts | 35° |
| 2026-04-24 08:44 | 51.45765 | 5.38789 | 71 ft | 6 kts | 4° |
| 2026-04-24 08:44 | 51.45811 | 5.38732 | 67 ft | 11 kts | 306° |
| 2026-04-24 08:44 | 51.45863 | 5.38617 | 64 ft | 14 kts | 306° |
| 2026-04-24 08:45 | 51.45923 | 5.38489 | 74 ft | 15 kts | 307° |
| 2026-04-24 08:45 | 51.45986 | 5.38346 | 70 ft | 14 kts | 294° |
| 2026-04-24 08:45 | 51.45946 | 5.38217 | 72 ft | 15 kts | 216° |
| 2026-04-24 08:45 | 51.45853 | 5.38108 | 72 ft | 18 kts | 215° |
| 2026-04-24 08:46 | 51.45743 | 5.37991 | 68 ft | 20 kts | 215° |
| 2026-04-24 08:46 | 51.45622 | 5.37855 | 73 ft | 22 kts | 215° |
| 2026-04-24 08:46 | 51.45489 | 5.37706 | 69 ft | 23 kts | 215° |
| 2026-04-24 08:46 | 51.45353 | 5.37553 | 70 ft | 23 kts | 215° |
| 2026-04-24 08:47 | 51.45220 | 5.37402 | 67 ft | 24 kts | 214° |
| 2026-04-24 08:47 | 51.45074 | 5.37241 | 69 ft | 26 kts | 215° |
| 2026-04-24 08:47 | 51.44927 | 5.37075 | 70 ft | 26 kts | 214° |
| 2026-04-24 08:47 | 51.44778 | 5.36908 | 66 ft | 27 kts | 215° |
| 2026-04-24 08:48 | 51.44620 | 5.36732 | 72 ft | 29 kts | 215° |
| 2026-04-24 08:48 | 51.44464 | 5.36555 | 69 ft | 29 kts | 216° |
| 2026-04-24 08:48 | 51.44294 | 5.36369 | 68 ft | 30 kts | 215° |
| 2026-04-24 08:48 | 51.44183 | 5.36265 | 71 ft | 14 kts | 169° |
| 2026-04-24 08:49 | 51.44122 | 5.36392 | 69 ft | 15 kts | 102° |
| 2026-04-24 08:49 | 51.44155 | 5.36488 | 68 ft | 3 kts | 36° |
| 2026-04-24 08:49 | 51.44269 | 5.36616 | 64 ft | 53 kts | 34° |
| 2026-04-24 08:49 | 51.44755 | 5.37161 | 75 ft | 114 kts | 35° |
| 2026-04-24 08:50 | 51.45546 | 5.38043 | 100 ft | 158 kts | 36° |
| 2026-04-24 08:50 | 51.46430 | 5.39051 | 748 ft | 154 kts | 34° |
| 2026-04-24 08:50 | 51.47306 | 5.40034 | 1405 ft | 154 kts | 34° |
| 2026-04-24 08:50 | 51.48236 | 5.41072 | 1744 ft | 173 kts | 33° |
| 2026-04-24 08:51 | 51.49285 | 5.42245 | 2012 ft | 196 kts | 34° |
| 2026-04-24 08:51 | 51.50222 | 5.44011 | 2325 ft | 226 kts | 66° |
| 2026-04-24 08:51 | 51.50497 | 5.46643 | 2816 ft | 249 kts | 83° |
| 2026-04-24 08:51 | 51.50601 | 5.49474 | 3644 ft | 257 kts | 84° |
| 2026-04-24 08:52 | 51.50683 | 5.52359 | 4546 ft | 260 kts | 84° |
| 2026-04-24 08:52 | 51.50760 | 5.55252 | 5433 ft | 264 kts | 84° |
| 2026-04-24 08:52 | 51.50841 | 5.58214 | 6329 ft | 267 kts | 84° |
| 2026-04-24 08:52 | 51.50927 | 5.61215 | 7182 ft | 271 kts | 84° |
| 2026-04-24 08:53 | 51.51017 | 5.64265 | 7988 ft | 275 kts | 84° |
| 2026-04-24 08:53 | 51.51110 | 5.67357 | 8794 ft | 279 kts | 84° |
| 2026-04-24 08:53 | 51.51205 | 5.70496 | 9598 ft | 283 kts | 85° |
| 2026-04-24 08:53 | 51.51305 | 5.73692 | 10377 ft | 288 kts | 85° |
| 2026-04-24 08:54 | 51.51409 | 5.76974 | 10766 ft | 306 kts | 85° |
| 2026-04-24 08:54 | 51.51523 | 5.80520 | 10992 ft | 327 kts | 85° |
| 2026-04-24 08:54 | 51.51637 | 5.84219 | 11528 ft | 335 kts | 85° |
| 2026-04-24 08:54 | 51.51747 | 5.87989 | 12197 ft | 340 kts | 85° |
| 2026-04-24 08:55 | 51.51856 | 5.91818 | 12870 ft | 344 kts | 86° |
| 2026-04-24 08:55 | 51.51963 | 5.95677 | 13532 ft | 348 kts | 86° |
| 2026-04-24 08:55 | 51.52070 | 5.99539 | 14175 ft | 352 kts | 86° |
| 2026-04-24 08:55 | 51.52183 | 6.03480 | 14744 ft | 356 kts | 86° |
| 2026-04-24 08:56 | 51.52298 | 6.07477 | 15314 ft | 359 kts | 86° |
| 2026-04-24 08:56 | 51.52411 | 6.11503 | 15880 ft | 363 kts | 86° |
| 2026-04-24 08:56 | 51.52522 | 6.15571 | 16462 ft | 366 kts | 86° |
| 2026-04-24 08:56 | 51.52644 | 6.19681 | 17013 ft | 370 kts | 84° |
| 2026-04-24 08:57 | 51.53040 | 6.23784 | 17565 ft | 373 kts | 79° |
| 2026-04-24 08:57 | 51.53500 | 6.27916 | 18119 ft | 377 kts | 79° |
| 2026-04-24 08:57 | 51.53961 | 6.32090 | 18671 ft | 381 kts | 79° |
| 2026-04-24 08:57 | 51.54421 | 6.36315 | 19150 ft | 385 kts | 80° |
| 2026-04-24 08:58 | 51.54877 | 6.40575 | 19656 ft | 388 kts | 80° |
| 2026-04-24 08:58 | 51.55335 | 6.44871 | 20160 ft | 391 kts | 80° |
| 2026-04-24 08:58 | 51.55796 | 6.49201 | 20670 ft | 395 kts | 80° |
| 2026-04-24 08:58 | 51.56278 | 6.53569 | 21159 ft | 398 kts | 77° |
| 2026-04-24 08:59 | 51.57104 | 6.57819 | 21614 ft | 401 kts | 67° |
| 2026-04-24 08:59 | 51.58406 | 6.61807 | 22066 ft | 404 kts | 56° |
| 2026-04-24 08:59 | 51.60039 | 6.65404 | 22497 ft | 407 kts | 52° |
| 2026-04-24 08:59 | 51.61775 | 6.69124 | 22949 ft | 410 kts | 52° |
| 2026-04-24 09:00 | 51.63485 | 6.72812 | 23387 ft | 414 kts | 53° |
| 2026-04-24 09:00 | 51.64628 | 6.75288 | 23676 ft | 416 kts | 53° |
| 2026-04-24 09:00 | 51.66357 | 6.79045 | 24073 ft | 419 kts | 53° |
| 2026-04-24 09:00 | 51.68096 | 6.82842 | 24433 ft | 422 kts | 53° |
| 2026-04-24 09:01 | 51.69843 | 6.86663 | 24822 ft | 425 kts | 53° |
| 2026-04-24 09:01 | 51.71603 | 6.90509 | 25201 ft | 428 kts | 53° |
| 2026-04-24 09:01 | 51.73372 | 6.94367 | 25574 ft | 430 kts | 53° |
| 2026-04-24 09:01 | 51.75160 | 6.98266 | 25945 ft | 432 kts | 53° |
| 2026-04-24 09:02 | 51.76952 | 7.02179 | 26317 ft | 435 kts | 53° |
| 2026-04-24 09:02 | 51.78752 | 7.06124 | 26688 ft | 438 kts | 53° |
| 2026-04-24 09:02 | 51.80560 | 7.10100 | 27046 ft | 440 kts | 53° |
| 2026-04-24 09:02 | 51.82348 | 7.14077 | 27398 ft | 442 kts | 56° |
| 2026-04-24 09:03 | 51.83855 | 7.18425 | 27754 ft | 445 kts | 66° |
| 2026-04-24 09:03 | 51.84906 | 7.23211 | 28112 ft | 448 kts | 76° |
| 2026-04-24 09:03 | 51.85446 | 7.28181 | 28464 ft | 450 kts | 85° |
| 2026-04-24 09:03 | 51.85539 | 7.33178 | 28806 ft | 452 kts | 90° |
| 2026-04-24 09:04 | 51.85566 | 7.38271 | 29157 ft | 454 kts | 90° |
| 2026-04-24 09:04 | 51.85591 | 7.43392 | 29509 ft | 457 kts | 90° |
| 2026-04-24 09:04 | 51.85615 | 7.48605 | 29870 ft | 459 kts | 90° |
| 2026-04-24 09:04 | 51.85635 | 7.53784 | 30219 ft | 461 kts | 90° |
| 2026-04-24 09:05 | 51.85654 | 7.58980 | 30523 ft | 464 kts | 90° |
| 2026-04-24 09:05 | 51.85668 | 7.64212 | 30820 ft | 466 kts | 90° |
| 2026-04-24 09:05 | 51.85631 | 7.69438 | 31233 ft | 464 kts | 95° |
| 2026-04-24 09:05 | 51.85195 | 7.74600 | 31630 ft | 462 kts | 103° |
| 2026-04-24 09:06 | 51.84516 | 7.79676 | 32031 ft | 462 kts | 103° |
| 2026-04-24 09:06 | 51.83835 | 7.84749 | 32447 ft | 461 kts | 103° |
| 2026-04-24 09:06 | 51.83156 | 7.89810 | 32856 ft | 461 kts | 103° |
| 2026-04-24 09:06 | 51.82479 | 7.94876 | 33266 ft | 460 kts | 103° |
| 2026-04-24 09:07 | 51.81807 | 7.99915 | 33677 ft | 460 kts | 103° |
| 2026-04-24 09:07 | 51.81129 | 8.04974 | 34086 ft | 459 kts | 104° |
| 2026-04-24 09:07 | 51.79766 | 8.15033 | 34800 ft | 458 kts | 104° |
| 2026-04-24 09:08 | 51.79078 | 8.20058 | 35133 ft | 457 kts | 104° |
| 2026-04-24 09:08 | 51.78390 | 8.25062 | 35460 ft | 457 kts | 104° |
| 2026-04-24 09:08 | 51.77699 | 8.30075 | 35784 ft | 456 kts | 104° |
| 2026-04-24 09:08 | 51.77009 | 8.35067 | 36087 ft | 456 kts | 104° |
| 2026-04-24 09:09 | 51.76319 | 8.40059 | 36402 ft | 455 kts | 104° |
| 2026-04-24 09:09 | 51.75629 | 8.45037 | 36687 ft | 455 kts | 104° |
| 2026-04-24 09:09 | 51.74937 | 8.50021 | 36979 ft | 454 kts | 104° |
| 2026-04-24 09:09 | 51.74245 | 8.54984 | 37219 ft | 455 kts | 104° |
| 2026-04-24 09:10 | 51.72839 | 8.64995 | 37278 ft | 459 kts | 104° |
| 2026-04-24 09:10 | 51.71427 | 8.75033 | 37281 ft | 460 kts | 104° |
| 2026-04-24 09:11 | 51.69988 | 8.85152 | 37280 ft | 460 kts | 104° |
| 2026-04-24 09:11 | 51.68552 | 8.95189 | 37278 ft | 460 kts | 104° |
| 2026-04-24 09:12 | 51.67108 | 9.05235 | 37273 ft | 460 kts | 104° |
| 2026-04-24 09:12 | 51.65656 | 9.15273 | 37272 ft | 460 kts | 104° |
| 2026-04-24 09:13 | 51.64191 | 9.25304 | 37265 ft | 461 kts | 104° |
| 2026-04-24 09:13 | 51.62713 | 9.35337 | 37263 ft | 461 kts | 104° |
| 2026-04-24 09:14 | 51.61229 | 9.45359 | 37265 ft | 460 kts | 104° |
| 2026-04-24 09:14 | 51.59737 | 9.55378 | 37274 ft | 460 kts | 104° |
| 2026-04-24 09:15 | 51.58241 | 9.65383 | 37270 ft | 460 kts | 104° |
| 2026-04-24 09:15 | 51.56733 | 9.75379 | 37271 ft | 460 kts | 104° |
| 2026-04-24 09:16 | 51.55222 | 9.85364 | 37263 ft | 460 kts | 104° |
| 2026-04-24 09:16 | 51.53700 | 9.95348 | 37265 ft | 460 kts | 104° |
| 2026-04-24 09:17 | 51.52167 | 10.05335 | 37270 ft | 460 kts | 104° |
| 2026-04-24 09:17 | 51.50617 | 10.15370 | 37253 ft | 460 kts | 104° |
| 2026-04-24 09:18 | 51.49074 | 10.25264 | 37250 ft | 460 kts | 104° |
| 2026-04-24 09:18 | 51.47506 | 10.35277 | 37248 ft | 460 kts | 104° |
| 2026-04-24 09:19 | 51.45942 | 10.45233 | 37252 ft | 460 kts | 104° |
| 2026-04-24 09:19 | 51.44369 | 10.55172 | 37238 ft | 460 kts | 104° |
| 2026-04-24 09:20 | 51.42792 | 10.65091 | 37242 ft | 460 kts | 104° |
| 2026-04-24 09:20 | 51.41203 | 10.75019 | 37235 ft | 460 kts | 104° |
| 2026-04-24 09:21 | 51.39606 | 10.84935 | 37233 ft | 460 kts | 104° |
| 2026-04-24 09:21 | 51.38000 | 10.94842 | 37232 ft | 460 kts | 104° |
| 2026-04-24 09:22 | 51.36382 | 11.04744 | 37235 ft | 460 kts | 104° |
| 2026-04-24 09:22 | 51.34760 | 11.14637 | 37237 ft | 459 kts | 103° |
| 2026-04-24 09:23 | 51.33143 | 11.24518 | 37236 ft | 459 kts | 103° |
| 2026-04-24 09:23 | 51.31507 | 11.34386 | 37232 ft | 459 kts | 103° |
| 2026-04-24 09:24 | 51.29852 | 11.44261 | 37229 ft | 460 kts | 103° |
| 2026-04-24 09:24 | 51.28194 | 11.54120 | 37231 ft | 460 kts | 103° |
| 2026-04-24 09:25 | 51.26527 | 11.64044 | 37228 ft | 460 kts | 103° |
| 2026-04-24 09:25 | 51.24858 | 11.73911 | 37233 ft | 460 kts | 103° |
| 2026-04-24 09:26 | 51.23175 | 11.83763 | 37232 ft | 460 kts | 103° |
| 2026-04-24 09:26 | 51.21478 | 11.93610 | 37232 ft | 460 kts | 103° |
| 2026-04-24 09:27 | 51.19776 | 12.03428 | 37236 ft | 460 kts | 103° |
| 2026-04-24 09:27 | 51.18069 | 12.13253 | 37238 ft | 460 kts | 103° |
| 2026-04-24 09:28 | 51.16362 | 12.23075 | 37237 ft | 460 kts | 103° |
| 2026-04-24 09:28 | 51.14635 | 12.32880 | 37236 ft | 460 kts | 103° |
| 2026-04-24 09:29 | 51.12905 | 12.42672 | 37237 ft | 460 kts | 103° |
| 2026-04-24 09:29 | 51.11169 | 12.52470 | 37236 ft | 460 kts | 103° |
| 2026-04-24 09:30 | 51.09426 | 12.62259 | 37235 ft | 460 kts | 103° |
| 2026-04-24 09:30 | 51.07673 | 12.72038 | 37236 ft | 460 kts | 103° |
| 2026-04-24 09:31 | 51.05903 | 12.81804 | 37233 ft | 460 kts | 103° |
| 2026-04-24 09:31 | 51.04114 | 12.91623 | 37228 ft | 460 kts | 103° |
| 2026-04-24 09:32 | 51.02338 | 13.01386 | 37225 ft | 460 kts | 103° |
| 2026-04-24 09:32 | 51.00551 | 13.11141 | 37221 ft | 460 kts | 103° |
| 2026-04-24 09:33 | 50.99058 | 13.19236 | 37218 ft | 460 kts | 103° |
| 2026-04-24 09:33 | 50.97257 | 13.28971 | 37217 ft | 459 kts | 103° |
| 2026-04-24 09:34 | 50.95447 | 13.38684 | 37212 ft | 459 kts | 103° |
| 2026-04-24 09:34 | 50.93630 | 13.48397 | 37212 ft | 460 kts | 103° |
| 2026-04-24 09:35 | 50.91805 | 13.58101 | 37211 ft | 460 kts | 103° |
| 2026-04-24 09:35 | 50.89970 | 13.67801 | 37206 ft | 460 kts | 103° |
| 2026-04-24 09:36 | 50.88126 | 13.77505 | 37204 ft | 460 kts | 103° |
| 2026-04-24 09:36 | 50.86262 | 13.87247 | 37202 ft | 459 kts | 103° |
| 2026-04-24 09:37 | 50.84402 | 13.96917 | 37193 ft | 459 kts | 103° |
| 2026-04-24 09:37 | 50.81948 | 14.06290 | 37191 ft | 463 kts | 112° |
| 2026-04-24 09:38 | 50.79205 | 14.15483 | 37190 ft | 462 kts | 112° |
| 2026-04-24 09:38 | 50.76460 | 14.24679 | 37176 ft | 463 kts | 112° |
| 2026-04-24 09:39 | 50.73703 | 14.33860 | 37185 ft | 463 kts | 112° |
| 2026-04-24 09:39 | 50.70941 | 14.43024 | 37171 ft | 463 kts | 112° |
| 2026-04-24 09:40 | 50.68169 | 14.52186 | 37185 ft | 463 kts | 112° |
| 2026-04-24 09:40 | 50.65391 | 14.61341 | 37176 ft | 463 kts | 112° |
| 2026-04-24 09:41 | 50.62613 | 14.70482 | 37177 ft | 463 kts | 112° |
| 2026-04-24 09:41 | 50.59820 | 14.79631 | 37171 ft | 463 kts | 112° |
| 2026-04-24 09:42 | 50.57013 | 14.88753 | 37168 ft | 463 kts | 112° |
| 2026-04-24 09:42 | 50.54205 | 14.97861 | 37167 ft | 463 kts | 112° |
| 2026-04-24 09:43 | 50.51367 | 15.07016 | 37169 ft | 463 kts | 112° |
| 2026-04-24 09:43 | 50.48571 | 15.16044 | 37166 ft | 462 kts | 112° |
| 2026-04-24 09:44 | 50.45730 | 15.25178 | 37161 ft | 462 kts | 112° |
| 2026-04-24 09:44 | 50.42900 | 15.34232 | 37155 ft | 462 kts | 112° |
| 2026-04-24 09:45 | 50.40062 | 15.43272 | 37154 ft | 462 kts | 112° |
| 2026-04-24 09:45 | 50.37213 | 15.52297 | 37148 ft | 462 kts | 112° |
| 2026-04-24 09:46 | 50.34367 | 15.61311 | 37146 ft | 462 kts | 112° |
| 2026-04-24 09:46 | 50.31513 | 15.70309 | 37144 ft | 462 kts | 112° |
| 2026-04-24 09:47 | 50.28653 | 15.79297 | 37143 ft | 461 kts | 112° |
| 2026-04-24 09:47 | 50.25790 | 15.88264 | 37144 ft | 461 kts | 112° |
| 2026-04-24 09:48 | 50.22908 | 15.97223 | 37141 ft | 461 kts | 112° |
| 2026-04-24 09:48 | 50.20027 | 16.06161 | 37135 ft | 461 kts | 112° |
| 2026-04-24 09:49 | 50.17142 | 16.15108 | 37135 ft | 461 kts | 112° |
| 2026-04-24 09:49 | 50.14253 | 16.24029 | 37134 ft | 461 kts | 112° |
| 2026-04-24 09:50 | 50.11335 | 16.33010 | 37132 ft | 461 kts | 112° |
| 2026-04-24 09:50 | 50.08446 | 16.41864 | 37135 ft | 462 kts | 112° |
| 2026-04-24 09:51 | 50.05505 | 16.50823 | 37129 ft | 462 kts | 112° |
| 2026-04-24 09:51 | 50.02584 | 16.59712 | 37128 ft | 461 kts | 112° |
| 2026-04-24 09:52 | 49.99653 | 16.68589 | 37131 ft | 461 kts | 112° |
| 2026-04-24 09:52 | 49.96722 | 16.77446 | 37122 ft | 461 kts | 112° |
| 2026-04-24 09:53 | 49.93785 | 16.86294 | 37123 ft | 461 kts | 112° |
| 2026-04-24 09:53 | 49.90841 | 16.95113 | 37122 ft | 460 kts | 112° |
| 2026-04-24 09:54 | 49.87863 | 17.03986 | 37121 ft | 460 kts | 112° |
| 2026-04-24 09:54 | 49.84905 | 17.12787 | 37116 ft | 460 kts | 112° |
| 2026-04-24 09:55 | 49.81949 | 17.21569 | 37115 ft | 460 kts | 112° |
| 2026-04-24 09:55 | 49.78989 | 17.30330 | 37119 ft | 459 kts | 112° |
| 2026-04-24 09:56 | 49.76022 | 17.39080 | 37115 ft | 459 kts | 112° |
| 2026-04-24 09:56 | 49.73043 | 17.47820 | 37116 ft | 459 kts | 112° |
| 2026-04-24 09:57 | 49.70053 | 17.56547 | 37120 ft | 459 kts | 112° |
| 2026-04-24 09:57 | 49.67071 | 17.65250 | 37116 ft | 459 kts | 112° |
| 2026-04-24 09:58 | 49.64080 | 17.73962 | 37113 ft | 459 kts | 112° |
| 2026-04-24 09:58 | 49.61087 | 17.82648 | 37112 ft | 459 kts | 112° |
| 2026-04-24 09:59 | 49.58078 | 17.91340 | 37113 ft | 459 kts | 112° |
| 2026-04-24 09:59 | 49.55064 | 18.00002 | 37113 ft | 459 kts | 112° |
| 2026-04-24 10:00 | 49.52089 | 18.08520 | 37110 ft | 459 kts | 112° |
| 2026-04-24 10:00 | 49.49060 | 18.17164 | 37104 ft | 459 kts | 112° |
| 2026-04-24 10:01 | 49.46030 | 18.25801 | 37107 ft | 459 kts | 112° |
| 2026-04-24 10:01 | 49.42980 | 18.34493 | 37105 ft | 459 kts | 112° |
| 2026-04-24 10:02 | 49.39933 | 18.43095 | 37089 ft | 458 kts | 113° |
| 2026-04-24 10:02 | 49.36651 | 18.51503 | 37087 ft | 461 kts | 117° |
| 2026-04-24 10:03 | 49.33046 | 18.59658 | 37087 ft | 462 kts | 119° |
| 2026-04-24 10:03 | 49.29398 | 18.67775 | 37087 ft | 462 kts | 118° |
| 2026-04-24 10:04 | 49.25829 | 18.75943 | 37087 ft | 461 kts | 118° |
| 2026-04-24 10:04 | 49.22896 | 18.82751 | 37093 ft | 461 kts | 117° |
| 2026-04-24 10:05 | 49.19358 | 18.90920 | 37096 ft | 461 kts | 118° |
| 2026-04-24 10:05 | 49.15796 | 18.99077 | 37090 ft | 461 kts | 118° |
| 2026-04-24 10:06 | 49.10409 | 19.11322 | 37084 ft | 461 kts | 118° |
| 2026-04-24 10:07 | 49.06852 | 19.19389 | 37081 ft | 461 kts | 118° |
| 2026-04-24 10:07 | 49.03248 | 19.27559 | 37074 ft | 461 kts | 118° |
| 2026-04-24 10:08 | 48.99669 | 19.35639 | 37071 ft | 460 kts | 118° |
| 2026-04-24 10:08 | 48.96080 | 19.43703 | 37060 ft | 460 kts | 118° |
| 2026-04-24 10:09 | 48.92492 | 19.51742 | 37054 ft | 459 kts | 119° |
| 2026-04-24 10:09 | 48.88895 | 19.59771 | 37045 ft | 459 kts | 118° |
| 2026-04-24 10:10 | 48.85306 | 19.67782 | 37033 ft | 458 kts | 118° |
| 2026-04-24 10:10 | 48.81719 | 19.75755 | 37029 ft | 458 kts | 118° |
| 2026-04-24 10:11 | 48.78124 | 19.83720 | 37030 ft | 457 kts | 118° |
| 2026-04-24 10:11 | 48.74525 | 19.91660 | 37021 ft | 457 kts | 118° |
| 2026-04-24 10:12 | 48.70925 | 19.99579 | 37012 ft | 456 kts | 119° |
| 2026-04-24 10:12 | 48.67325 | 20.07491 | 37016 ft | 456 kts | 119° |
| 2026-04-24 10:13 | 48.63726 | 20.15382 | 37027 ft | 456 kts | 119° |
| 2026-04-24 10:13 | 48.60123 | 20.23270 | 37024 ft | 456 kts | 119° |
| 2026-04-24 10:14 | 48.56506 | 20.31128 | 37027 ft | 455 kts | 119° |
| 2026-04-24 10:14 | 48.52862 | 20.39015 | 37026 ft | 455 kts | 119° |
| 2026-04-24 10:15 | 48.49250 | 20.46848 | 37027 ft | 455 kts | 118° |
| 2026-04-24 10:15 | 48.46221 | 20.55091 | 37024 ft | 448 kts | 111° |
| 2026-04-24 10:16 | 48.43372 | 20.63449 | 37030 ft | 448 kts | 111° |
| 2026-04-24 10:16 | 48.40520 | 20.71791 | 37032 ft | 448 kts | 111° |
| 2026-04-24 10:17 | 48.37656 | 20.80128 | 37034 ft | 448 kts | 111° |
| 2026-04-24 10:17 | 48.34785 | 20.88447 | 37035 ft | 448 kts | 111° |
| 2026-04-24 10:18 | 48.31912 | 20.96754 | 37041 ft | 448 kts | 112° |
| 2026-04-24 10:18 | 48.29035 | 21.05050 | 37039 ft | 448 kts | 112° |
| 2026-04-24 10:19 | 48.26157 | 21.13333 | 37042 ft | 448 kts | 112° |
| 2026-04-24 10:19 | 48.23268 | 21.21616 | 37045 ft | 448 kts | 112° |
| 2026-04-24 10:20 | 48.20369 | 21.29884 | 37049 ft | 447 kts | 112° |
| 2026-04-24 10:20 | 48.17496 | 21.38062 | 37049 ft | 447 kts | 112° |
| 2026-04-24 10:21 | 48.14592 | 21.46307 | 37055 ft | 447 kts | 112° |
| 2026-04-24 10:21 | 48.11686 | 21.54541 | 37057 ft | 447 kts | 112° |
| 2026-04-24 10:22 | 48.08753 | 21.62823 | 37060 ft | 447 kts | 112° |
| 2026-04-24 10:22 | 48.05826 | 21.71032 | 37044 ft | 448 kts | 112° |
| 2026-04-24 10:23 | 48.02893 | 21.79234 | 37047 ft | 448 kts | 112° |
| 2026-04-24 10:23 | 47.99956 | 21.87440 | 37058 ft | 448 kts | 112° |
| 2026-04-24 10:24 | 47.97014 | 21.95641 | 37058 ft | 448 kts | 112° |
| 2026-04-24 10:24 | 47.94062 | 22.03837 | 37057 ft | 448 kts | 112° |
| 2026-04-24 10:25 | 47.91119 | 22.11978 | 37067 ft | 448 kts | 112° |
| 2026-04-24 10:25 | 47.88158 | 22.20151 | 37063 ft | 448 kts | 112° |
| 2026-04-24 10:26 | 47.85194 | 22.28321 | 37064 ft | 448 kts | 112° |
| 2026-04-24 10:26 | 47.82227 | 22.36470 | 37062 ft | 448 kts | 112° |
| 2026-04-24 10:27 | 47.79690 | 22.44792 | 37059 ft | 437 kts | 99° |
| 2026-04-24 10:27 | 47.78758 | 22.53595 | 37051 ft | 428 kts | 89° |
| 2026-04-24 10:28 | 47.78188 | 22.62404 | 37057 ft | 429 kts | 90° |
| 2026-04-24 10:28 | 47.77578 | 22.71250 | 37055 ft | 429 kts | 90° |
| 2026-04-24 10:29 | 47.76962 | 22.80025 | 37059 ft | 429 kts | 90° |
| 2026-04-24 10:29 | 47.76344 | 22.88858 | 37063 ft | 429 kts | 90° |
| 2026-04-24 10:30 | 47.75726 | 22.97684 | 37051 ft | 429 kts | 90° |
| 2026-04-24 10:30 | 47.75100 | 23.06513 | 37048 ft | 429 kts | 90° |
| 2026-04-24 10:31 | 47.74466 | 23.15350 | 37049 ft | 429 kts | 90° |
| 2026-04-24 10:31 | 47.73830 | 23.24174 | 37029 ft | 430 kts | 90° |
| 2026-04-24 10:32 | 47.73175 | 23.33022 | 37029 ft | 430 kts | 90° |
| 2026-04-24 10:32 | 47.72523 | 23.41804 | 37024 ft | 430 kts | 90° |
| 2026-04-24 10:33 | 47.71863 | 23.50666 | 37023 ft | 431 kts | 90° |
| 2026-04-24 10:33 | 47.71191 | 23.59515 | 37024 ft | 431 kts | 90° |
| 2026-04-24 10:34 | 47.70506 | 23.68375 | 37022 ft | 431 kts | 90° |
| 2026-04-24 10:34 | 47.69818 | 23.77231 | 37020 ft | 431 kts | 90° |
| 2026-04-24 10:35 | 47.69134 | 23.86027 | 37015 ft | 431 kts | 90° |
| 2026-04-24 10:35 | 47.68434 | 23.94897 | 37012 ft | 432 kts | 90° |
| 2026-04-24 10:36 | 47.67728 | 24.03769 | 37009 ft | 433 kts | 90° |
| 2026-04-24 10:36 | 47.67013 | 24.12641 | 37009 ft | 433 kts | 90° |
| 2026-04-24 10:37 | 47.66409 | 24.20029 | 37013 ft | 433 kts | 90° |
| 2026-04-24 10:37 | 47.65562 | 24.30373 | 37003 ft | 433 kts | 90° |
| 2026-04-24 10:38 | 47.64949 | 24.37820 | 36999 ft | 433 kts | 90° |
| 2026-04-24 10:38 | 47.64208 | 24.46655 | 36993 ft | 434 kts | 90° |
| 2026-04-24 10:39 | 47.63449 | 24.55556 | 36995 ft | 434 kts | 90° |
| 2026-04-24 10:39 | 47.62696 | 24.64438 | 36987 ft | 434 kts | 90° |
| 2026-04-24 10:40 | 47.61941 | 24.73274 | 36984 ft | 434 kts | 90° |
| 2026-04-24 10:40 | 47.61172 | 24.82164 | 36971 ft | 434 kts | 90° |
| 2026-04-24 10:41 | 47.60394 | 24.91043 | 36958 ft | 433 kts | 90° |
| 2026-04-24 10:41 | 47.59609 | 24.99931 | 36817 ft | 436 kts | 90° |
| 2026-04-24 10:41 | 47.59208 | 25.04388 | 36553 ft | 435 kts | 90° |
| 2026-04-24 10:42 | 47.58805 | 25.08851 | 36290 ft | 435 kts | 90° |
| 2026-04-24 10:42 | 47.58407 | 25.13281 | 36045 ft | 435 kts | 90° |
| 2026-04-24 10:42 | 47.58009 | 25.17716 | 35793 ft | 434 kts | 90° |
| 2026-04-24 10:42 | 47.57608 | 25.22158 | 35544 ft | 434 kts | 90° |
| 2026-04-24 10:43 | 47.57203 | 25.26606 | 35298 ft | 434 kts | 90° |
| 2026-04-24 10:43 | 47.56803 | 25.30972 | 35061 ft | 430 kts | 90° |
| 2026-04-24 10:43 | 47.56400 | 25.35342 | 34613 ft | 428 kts | 89° |
| 2026-04-24 10:43 | 47.55996 | 25.39708 | 34145 ft | 425 kts | 89° |
| 2026-04-24 10:44 | 47.55592 | 25.44046 | 33631 ft | 423 kts | 89° |
| 2026-04-24 10:44 | 47.55193 | 25.48319 | 33159 ft | 420 kts | 89° |
| 2026-04-24 10:44 | 47.54793 | 25.52582 | 32680 ft | 416 kts | 89° |
| 2026-04-24 10:44 | 47.54394 | 25.56816 | 32210 ft | 412 kts | 89° |
| 2026-04-24 10:45 | 47.54001 | 25.60997 | 31751 ft | 409 kts | 88° |
| 2026-04-24 10:45 | 47.53610 | 25.65159 | 31283 ft | 406 kts | 89° |
| 2026-04-24 10:45 | 47.53219 | 25.69296 | 30818 ft | 404 kts | 89° |
| 2026-04-24 10:45 | 47.52827 | 25.73413 | 30369 ft | 401 kts | 89° |
| 2026-04-24 10:46 | 47.52441 | 25.77445 | 29920 ft | 399 kts | 88° |
| 2026-04-24 10:46 | 47.52052 | 25.81500 | 29450 ft | 396 kts | 89° |
| 2026-04-24 10:46 | 47.51664 | 25.85514 | 29026 ft | 391 kts | 88° |
| 2026-04-24 10:46 | 47.51446 | 25.89453 | 28614 ft | 378 kts | 80° |
| 2026-04-24 10:47 | 47.51441 | 25.93328 | 28212 ft | 375 kts | 81° |
| 2026-04-24 10:47 | 47.51429 | 25.97173 | 27822 ft | 372 kts | 81° |
| 2026-04-24 10:47 | 47.51412 | 26.00989 | 27442 ft | 369 kts | 81° |
| 2026-04-24 10:47 | 47.51390 | 26.04766 | 27054 ft | 366 kts | 81° |
| 2026-04-24 10:48 | 47.51366 | 26.08529 | 26677 ft | 363 kts | 81° |
| 2026-04-24 10:48 | 47.51343 | 26.12248 | 26306 ft | 359 kts | 81° |
| 2026-04-24 10:48 | 47.51319 | 26.15937 | 25925 ft | 357 kts | 81° |
| 2026-04-24 10:48 | 47.51298 | 26.19551 | 25549 ft | 354 kts | 81° |
| 2026-04-24 10:49 | 47.51277 | 26.23191 | 25173 ft | 352 kts | 81° |
| 2026-04-24 10:49 | 47.51258 | 26.26797 | 24781 ft | 350 kts | 81° |
| 2026-04-24 10:49 | 47.51237 | 26.30391 | 24393 ft | 348 kts | 81° |
| 2026-04-24 10:49 | 47.51211 | 26.33971 | 24000 ft | 347 kts | 81° |
| 2026-04-24 10:50 | 47.51182 | 26.37536 | 23600 ft | 346 kts | 81° |
| 2026-04-24 10:50 | 47.51153 | 26.41112 | 23150 ft | 346 kts | 81° |
| 2026-04-24 10:50 | 47.51122 | 26.44659 | 22731 ft | 343 kts | 81° |
| 2026-04-24 10:50 | 47.51090 | 26.48178 | 22330 ft | 340 kts | 81° |
| 2026-04-24 10:51 | 47.51058 | 26.51677 | 21921 ft | 338 kts | 81° |
| 2026-04-24 10:51 | 47.51025 | 26.55143 | 21515 ft | 337 kts | 81° |
| 2026-04-24 10:51 | 47.50991 | 26.58603 | 21114 ft | 335 kts | 82° |
| 2026-04-24 10:51 | 47.50959 | 26.62050 | 20708 ft | 334 kts | 82° |
| 2026-04-24 10:52 | 47.50927 | 26.65445 | 20314 ft | 333 kts | 82° |
| 2026-04-24 10:52 | 47.50892 | 26.68874 | 19908 ft | 333 kts | 82° |
| 2026-04-24 10:52 | 47.50855 | 26.72298 | 19503 ft | 333 kts | 82° |
| 2026-04-24 10:52 | 47.50818 | 26.75727 | 19097 ft | 333 kts | 82° |
| 2026-04-24 10:53 | 47.50778 | 26.79153 | 18681 ft | 334 kts | 84° |
| 2026-04-24 10:53 | 47.50435 | 26.82610 | 18264 ft | 345 kts | 97° |
| 2026-04-24 10:53 | 47.49555 | 26.85968 | 17776 ft | 355 kts | 111° |
| 2026-04-24 10:53 | 47.48390 | 26.89197 | 17339 ft | 355 kts | 111° |
| 2026-04-24 10:54 | 47.47231 | 26.92412 | 16906 ft | 354 kts | 112° |
| 2026-04-24 10:54 | 47.46070 | 26.95635 | 16463 ft | 354 kts | 112° |
| 2026-04-24 10:54 | 47.44927 | 26.98806 | 16018 ft | 354 kts | 112° |
| 2026-04-24 10:54 | 47.43772 | 27.02018 | 15581 ft | 354 kts | 112° |
| 2026-04-24 10:55 | 47.42615 | 27.05237 | 15142 ft | 354 kts | 113° |
| 2026-04-24 10:55 | 47.41456 | 27.08451 | 14698 ft | 355 kts | 113° |
| 2026-04-24 10:55 | 47.40293 | 27.11673 | 14257 ft | 355 kts | 114° |
| 2026-04-24 10:55 | 47.39131 | 27.14899 | 13811 ft | 355 kts | 114° |
| 2026-04-24 10:56 | 47.37970 | 27.18111 | 13334 ft | 355 kts | 115° |
| 2026-04-24 10:56 | 47.36804 | 27.21323 | 12893 ft | 354 kts | 115° |
| 2026-04-24 10:56 | 47.35753 | 27.24209 | 12495 ft | 352 kts | 115° |
| 2026-04-24 10:56 | 47.34595 | 27.27394 | 12068 ft | 352 kts | 115° |
| 2026-04-24 10:57 | 47.33312 | 27.30465 | 11647 ft | 352 kts | 128° |
| 2026-04-24 10:57 | 47.31544 | 27.32874 | 11536 ft | 342 kts | 147° |
| 2026-04-24 10:57 | 47.29566 | 27.34708 | 11453 ft | 330 kts | 149° |
| 2026-04-24 10:57 | 47.27643 | 27.36453 | 11379 ft | 319 kts | 149° |
| 2026-04-24 10:58 | 47.25800 | 27.38108 | 11283 ft | 311 kts | 150° |
| 2026-04-24 10:58 | 47.23941 | 27.39763 | 10960 ft | 313 kts | 150° |
| 2026-04-24 10:58 | 47.22068 | 27.41427 | 10576 ft | 315 kts | 150° |
| 2026-04-24 10:58 | 47.20182 | 27.43106 | 10180 ft | 318 kts | 151° |
| 2026-04-24 10:59 | 47.18362 | 27.44725 | 9790 ft | 320 kts | 151° |
| 2026-04-24 10:59 | 47.16447 | 27.46421 | 9364 ft | 322 kts | 151° |
| 2026-04-24 10:59 | 47.14531 | 27.48113 | 9015 ft | 321 kts | 151° |
| 2026-04-24 10:59 | 47.12627 | 27.49797 | 8683 ft | 319 kts | 151° |
| 2026-04-24 11:00 | 47.10754 | 27.51460 | 8309 ft | 319 kts | 151° |
| 2026-04-24 11:00 | 47.08860 | 27.53139 | 7967 ft | 318 kts | 151° |
| 2026-04-24 11:00 | 47.06968 | 27.54817 | 7688 ft | 315 kts | 151° |
| 2026-04-24 11:00 | 47.05098 | 27.56473 | 7298 ft | 312 kts | 151° |
| 2026-04-24 11:01 | 47.03244 | 27.58112 | 6724 ft | 312 kts | 151° |
| 2026-04-24 11:01 | 47.01393 | 27.59745 | 6284 ft | 307 kts | 151° |
| 2026-04-24 11:01 | 46.99700 | 27.61579 | 5877 ft | 299 kts | 129° |
| 2026-04-24 11:01 | 46.98833 | 27.64238 | 5501 ft | 285 kts | 93° |
| 2026-04-24 11:02 | 46.99035 | 27.66983 | 5111 ft | 260 kts | 59° |
| 2026-04-24 11:02 | 46.99889 | 27.69208 | 4760 ft | 245 kts | 50° |
| 2026-04-24 11:02 | 47.00636 | 27.71002 | 4471 ft | 245 kts | 50° |
| 2026-04-24 11:02 | 47.01473 | 27.72975 | 4146 ft | 245 kts | 46° |
| 2026-04-24 11:03 | 47.02722 | 27.74488 | 3797 ft | 226 kts | 9° |
| 2026-04-24 11:03 | 47.04183 | 27.74419 | 3510 ft | 206 kts | 331° |
| 2026-04-24 11:03 | 47.05398 | 27.73337 | 3239 ft | 203 kts | 325° |
| 2026-04-24 11:03 | 47.06592 | 27.72249 | 2980 ft | 199 kts | 326° |
| 2026-04-24 11:04 | 47.07705 | 27.71257 | 2737 ft | 181 kts | 326° |
| 2026-04-24 11:04 | 47.08730 | 27.70349 | 2538 ft | 162 kts | 326° |
| 2026-04-24 11:04 | 47.09650 | 27.69536 | 2343 ft | 142 kts | 325° |
| 2026-04-24 11:04 | 47.10448 | 27.68830 | 2122 ft | 131 kts | 325° |
| 2026-04-24 11:05 | 47.11230 | 27.68135 | 1909 ft | 127 kts | 324° |
| 2026-04-24 11:05 | 47.11973 | 27.67477 | 1708 ft | 126 kts | 324° |
| 2026-04-24 11:05 | 47.12727 | 27.66804 | 1507 ft | 127 kts | 326° |
| 2026-04-24 11:05 | 47.13483 | 27.66129 | 1274 ft | 128 kts | 327° |
| 2026-04-24 11:06 | 47.14255 | 27.65441 | 1080 ft | 129 kts | 325° |
| 2026-04-24 11:06 | 47.15016 | 27.64738 | 847 ft | 129 kts | 326° |
| 2026-04-24 11:06 | 47.15787 | 27.64074 | 682 ft | 132 kts | 327° |
| 2026-04-24 11:06 | 47.16571 | 27.63382 | 510 ft | 129 kts | 326° |
| 2026-04-24 11:07 | 47.17957 | 27.62153 | 376 ft | 81 kts | 329° |
| 2026-04-24 11:07 | 47.18295 | 27.61846 | 390 ft | 38 kts | 329° |
| 2026-04-24 11:07 | 47.18501 | 27.61669 | 399 ft | 31 kts | 329° |
| 2026-04-24 11:08 | 47.18673 | 27.61516 | 407 ft | 27 kts | 329° |
| 2026-04-24 11:08 | 47.18820 | 27.61388 | 413 ft | 23 kts | 330° |
| 2026-04-24 11:08 | 47.18935 | 27.61333 | 418 ft | 10 kts | 283° |
| 2026-04-24 11:08 | 47.18891 | 27.61325 | 416 ft | 11 kts | 154° |
| 2026-04-24 11:09 | 47.18800 | 27.61406 | 412 ft | 18 kts | 149° |
| 2026-04-24 11:09 | 47.18721 | 27.61476 | 409 ft | 22 kts | 149° |
| 2026-04-24 11:09 | 47.18579 | 27.61603 | 403 ft | 26 kts | 148° |
| 2026-04-24 11:09 | 47.18407 | 27.61757 | 396 ft | 31 kts | 149° |
| 2026-04-24 11:10 | 47.18222 | 27.61921 | 387 ft | 32 kts | 149° |
| 2026-04-24 11:10 | 47.18027 | 27.62094 | 379 ft | 28 kts | 149° |
| 2026-04-24 11:10 | 47.17876 | 27.62200 | 373 ft | 23 kts | 189° |
| 2026-04-24 11:10 | 47.17827 | 27.62119 | 375 ft | 5 kts | 243° |
| 2026-04-24 11:11 | 47.17802 | 27.62047 | 374 ft | 10 kts | 243° |
| 2026-04-24 11:11 | 47.17758 | 27.61942 | 376 ft | 13 kts | 220° |
| 2026-04-24 11:11 | 47.17678 | 27.61968 | 378 ft | 13 kts | 152° |
| 2026-04-24 11:11 | 47.17587 | 27.62031 | 378 ft | 14 kts | 154° |
| 2026-04-24 11:12 | 47.17538 | 27.62034 | 378 ft | 7 kts | 214° |
| 2026-04-24 11:12 | 47.17530 | 27.61979 | 378 ft | 2 kts | 277° |
| 2026-04-24 11:12 | 47.17530 | 27.61973 | 378 ft | 0 kts | 275° |
| 2026-04-24 11:13 | 47.17530 | 27.61974 | 378 ft | 0 kts | 275° |